Moby Aki — IBVV — position and weather

sailwx.info

Track history (hours):
 
Tides and Currents Weather Stations Pressure Air Temp Water Temp Dewpoint Dewpoint Depression Visibility Wind Speed Wind Dir Waves Ship Positions

Moby Aki

Last reported at 2016-Jun-28 01:08 UTC. Time now 2016-Jun-28 11:41 UTC.
Position N 42°35' E 009°51'.

Length 175 m; draft 6.8 m.

Type: Ship. MMSI: 247132400.

Date/timePositionNaut miles runAvg speedWind from/ knotsBaromVisibWave heightAir tempDewpointWater temp
2016-Jun-28 01:08N 42°35' E 009°51'1526.5
2016-Jun-28 00:33N 42°50' E 009°57'2626.2
2016-Jun-27 23:34N 43°15' E 010°06'2019.7
2016-Jun-27 22:34N 43°33' E 010°18'0 0.3
2016-Jun-27 21:31N 43°33' E 010°18'3 2.9
2016-Jun-27 20:33N 43°31' E 010°15'2423.7
2016-Jun-27 19:33N 43°09' E 010°05'27 2.4
2016-Jun-27 08:22N 42°44' E 009°51'2126.5
2016-Jun-27 07:34N 43°04' E 009°59'2626.1
2016-Jun-27 06:33N 43°29' E 010°11'7 6.3
2016-Jun-27 05:31N 43°33' E 010°18'0 0.0
2016-Jun-27 04:28N 43°33' E 010°18'3 2.8
2016-Jun-27 03:33N 43°31' E 010°16'2323.3
2016-Jun-27 02:34N 43°09' E 010°05'2424.1
2016-Jun-27 01:33N 42°46' E 009°55'74 7.8
2016-Jun-26 16:08N 41°32' E 009°53'1626.6
2016-Jun-26 15:34N 41°47' E 009°58'2726.6
2016-Jun-26 14:33N 42°13' E 010°07'2626.1
2016-Jun-26 13:34N 42°36' E 010°24'19 9.3
2016-Jun-26 11:32N 42°53' E 010°34'64 6.9
2016-Jun-26 02:16N 42°01' E 009°43'2026.1
2016-Jun-26 01:31N 42°21' E 009°46'2425.6
2016-Jun-26 00:34N 42°44' E 009°55'2626.1
2016-Jun-25 23:34N 43°09' E 010°05'2424.0
2016-Jun-25 22:33N 43°32' E 010°16'2 2.0
2016-Jun-25 21:32N 43°33' E 010°18'3 3.1
2016-Jun-25 20:33N 43°31' E 010°15'2525.1
2016-Jun-25 19:34N 43°07' E 010°06'3025.9
2016-Jun-25 18:25N 42°38' E 009°58'5125.8
2016-Jun-25 16:26N 41°47' E 009°51'3225.8
2016-Jun-25 15:10N 41°14' E 009°45'1625.2
2016-Jun-25 14:33N 40°59' E 009°41'9816.2
2016-Jun-25 08:31N 42°37' E 009°49'2526.3
2016-Jun-25 07:33N 43°01' E 009°58'2726.7
2016-Jun-25 06:34N 43°26' E 010°10'9 8.6
2016-Jun-25 05:32N 43°33' E 010°18'0 0.0
2016-Jun-25 04:32N 43°33' E 010°18'3 2.7
2016-Jun-25 03:33N 43°31' E 010°16'2020.6
2016-Jun-25 02:33N 43°11' E 010°08'2322.5
2016-Jun-25 01:32N 42°49' E 010°00'110 8.3
2016-Jun-24 12:20N 40°60' E 009°41'10026.3
2016-Jun-24 08:33N 42°39' E 009°47'2626.3
2016-Jun-24 07:33N 43°04' E 009°60'3210.5
2016-Jun-24 04:31N 43°33' E 010°18'3 3.0
2016-Jun-24 03:33N 43°31' E 010°15'2019.8
2016-Jun-24 02:33N 43°12' E 010°07'2522.4
2016-Jun-24 01:27N 42°48' E 009°58'6 0.4
2016-Jun-23 08:17N 42°45' E 009°50'1926.4
2016-Jun-23 07:34N 43°03' E 009°59'3316.1
2016-Jun-23 05:31N 43°33' E 010°18'0 0.0
2016-Jun-23 04:25N 43°33' E 010°18'3 3.6
2016-Jun-23 03:33N 43°31' E 010°15'2221.9
2016-Jun-23 02:33N 43°09' E 010°08'2622.1
2016-Jun-23 01:22N 42°44' E 009°58'1822.2
2016-Jun-23 00:33N 42°26' E 009°55'2222.2
2016-Jun-22 23:33N 42°04' E 009°52'33 2.2
2016-Jun-22 08:32N 42°37' E 009°47'2626.5
2016-Jun-22 07:34N 43°01' E 009°58'2727.0
2016-Jun-22 06:34N 43°27' E 010°11'8 8.3
2016-Jun-22 05:32N 43°33' E 010°18'0 0.0
2016-Jun-22 04:32N 43°33' E 010°18'4 4.2
2016-Jun-22 03:33N 43°30' E 010°14'2222.3
2016-Jun-22 02:33N 43°08' E 010°07'2222.3
2016-Jun-22 01:33N 42°47' E 009°57'2322.5
2016-Jun-22 00:33N 42°25' E 009°55'88 7.2
2016-Jun-21 12:20N 40°58' E 009°40'5326.7
2016-Jun-21 10:22N 41°50' E 009°43'2226.9
2016-Jun-21 09:32N 42°12' E 009°44'3126.6
2016-Jun-21 08:24N 42°43' E 009°48'2226.7
2016-Jun-21 07:34N 43°04' E 009°59'3310.7
2016-Jun-21 04:31N 43°33' E 010°18'3 3.1
2016-Jun-21 03:33N 43°31' E 010°15'2019.9
2016-Jun-21 02:33N 43°12' E 010°08'2323.0
2016-Jun-21 01:33N 42°50' E 009°59'2323.2
2016-Jun-21 00:33N 42°27' E 009°54'14 0.9
2016-Jun-20 08:30N 42°40' E 009°48'2526.3
2016-Jun-20 07:34N 43°03' E 010°01'2726.5
2016-Jun-20 06:34N 43°28' E 010°12'6 5.9
2016-Jun-20 05:28N 43°33' E 010°18'0 0.0
2016-Jun-20 04:31N 43°33' E 010°18'6 6.3
2016-Jun-20 03:34N 43°28' E 010°13'2323.4
2016-Jun-20 02:34N 43°06' E 010°05'34 2.7
2016-Jun-19 13:34N 42°33' E 010°22'27 2.0
2016-Jun-19 00:08N 42°55' E 009°59'1526.4
2016-Jun-18 23:34N 43°09' E 010°05'2424.4
2016-Jun-18 22:33N 43°32' E 010°16'2 1.9
2016-Jun-18 21:33N 43°33' E 010°18'4 4.0
2016-Jun-18 20:34N 43°30' E 010°14'2525.5
2016-Jun-18 19:34N 43°06' E 010°05'31 2.8
2016-Jun-18 08:32N 42°37' E 009°49'2626.0
2016-Jun-18 07:32N 43°02' E 010°00'2526.1
2016-Jun-18 06:34N 43°26' E 010°11'9 8.8
2016-Jun-18 05:33N 43°33' E 010°18'0 0.0
2016-Jun-18 04:27N 43°33' E 010°18'3 3.5
2016-Jun-18 03:34N 43°31' E 010°15'2222.1
2016-Jun-18 02:33N 43°09' E 010°07'  
Track history (hours):
 
Tides and Currents Weather Stations Pressure Air Temp Water Temp Dewpoint Dewpoint Depression Visibility Wind Speed Wind Dir Waves Ship Positions

Moby Aki

Last reported at 2016-Jun-28 01:08 UTC. Time now 2016-Jun-28 11:41 UTC.
Position N 42°35' E 009°51'.

Length 175 m; draft 6.8 m.

Type: Ship. MMSI: 247132400.

Date/timePositionNaut miles runAvg speedWind from/ knotsBaromVisibWave heightAir tempDewpointWater temp
2016-Jun-28 01:08N 42°35' E 009°51'1526.5
2016-Jun-28 00:33N 42°50' E 009°57'2626.2
2016-Jun-27 23:34N 43°15' E 010°06'2019.7
2016-Jun-27 22:34N 43°33' E 010°18'0 0.3
2016-Jun-27 21:31N 43°33' E 010°18'3 2.9
2016-Jun-27 20:33N 43°31' E 010°15'2423.7
2016-Jun-27 19:33N 43°09' E 010°05'27 2.4
2016-Jun-27 08:22N 42°44' E 009°51'2126.5
2016-Jun-27 07:34N 43°04' E 009°59'2626.1
2016-Jun-27 06:33N 43°29' E 010°11'7 6.3
2016-Jun-27 05:31N 43°33' E 010°18'0 0.0
2016-Jun-27 04:28N 43°33' E 010°18'3 2.8
2016-Jun-27 03:33N 43°31' E 010°16'2323.3
2016-Jun-27 02:34N 43°09' E 010°05'2424.1
2016-Jun-27 01:33N 42°46' E 009°55'74 7.8
2016-Jun-26 16:08N 41°32' E 009°53'1626.6
2016-Jun-26 15:34N 41°47' E 009°58'2726.6
2016-Jun-26 14:33N 42°13' E 010°07'2626.1
2016-Jun-26 13:34N 42°36' E 010°24'19 9.3
2016-Jun-26 11:32N 42°53' E 010°34'64 6.9
2016-Jun-26 02:16N 42°01' E 009°43'2026.1
2016-Jun-26 01:31N 42°21' E 009°46'2425.6
2016-Jun-26 00:34N 42°44' E 009°55'2626.1
2016-Jun-25 23:34N 43°09' E 010°05'2424.0
2016-Jun-25 22:33N 43°32' E 010°16'2 2.0
2016-Jun-25 21:32N 43°33' E 010°18'3 3.1
2016-Jun-25 20:33N 43°31' E 010°15'2525.1
2016-Jun-25 19:34N 43°07' E 010°06'3025.9
2016-Jun-25 18:25N 42°38' E 009°58'5125.8
2016-Jun-25 16:26N 41°47' E 009°51'3225.8
2016-Jun-25 15:10N 41°14' E 009°45'1625.2
2016-Jun-25 14:33N 40°59' E 009°41'9816.2
2016-Jun-25 08:31N 42°37' E 009°49'2526.3
2016-Jun-25 07:33N 43°01' E 009°58'2726.7
2016-Jun-25 06:34N 43°26' E 010°10'9 8.6
2016-Jun-25 05:32N 43°33' E 010°18'0 0.0
2016-Jun-25 04:32N 43°33' E 010°18'3 2.7
2016-Jun-25 03:33N 43°31' E 010°16'2020.6
2016-Jun-25 02:33N 43°11' E 010°08'2322.5
2016-Jun-25 01:32N 42°49' E 010°00'110 8.3
2016-Jun-24 12:20N 40°60' E 009°41'10026.3
2016-Jun-24 08:33N 42°39' E 009°47'2626.3
2016-Jun-24 07:33N 43°04' E 009°60'3210.5
2016-Jun-24 04:31N 43°33' E 010°18'3 3.0
2016-Jun-24 03:33N 43°31' E 010°15'2019.8
2016-Jun-24 02:33N 43°12' E 010°07'2522.4
2016-Jun-24 01:27N 42°48' E 009°58'6 0.4
2016-Jun-23 08:17N 42°45' E 009°50'1926.4
2016-Jun-23 07:34N 43°03' E 009°59'3316.1
2016-Jun-23 05:31N 43°33' E 010°18'0 0.0
2016-Jun-23 04:25N 43°33' E 010°18'3 3.6
2016-Jun-23 03:33N 43°31' E 010°15'2221.9
2016-Jun-23 02:33N 43°09' E 010°08'2622.1
2016-Jun-23 01:22N 42°44' E 009°58'1822.2
2016-Jun-23 00:33N 42°26' E 009°55'2222.2
2016-Jun-22 23:33N 42°04' E 009°52'33 2.2
2016-Jun-22 08:32N 42°37' E 009°47'2626.5
2016-Jun-22 07:34N 43°01' E 009°58'2727.0
2016-Jun-22 06:34N 43°27' E 010°11'8 8.3
2016-Jun-22 05:32N 43°33' E 010°18'0 0.0
2016-Jun-22 04:32N 43°33' E 010°18'4 4.2
2016-Jun-22 03:33N 43°30' E 010°14'2222.3
2016-Jun-22 02:33N 43°08' E 010°07'2222.3
2016-Jun-22 01:33N 42°47' E 009°57'2322.5
2016-Jun-22 00:33N 42°25' E 009°55'88 7.2
2016-Jun-21 12:20N 40°58' E 009°40'5326.7
2016-Jun-21 10:22N 41°50' E 009°43'2226.9
2016-Jun-21 09:32N 42°12' E 009°44'3126.6
2016-Jun-21 08:24N 42°43' E 009°48'2226.7
2016-Jun-21 07:34N 43°04' E 009°59'3310.7
2016-Jun-21 04:31N 43°33' E 010°18'3 3.1
2016-Jun-21 03:33N 43°31' E 010°15'2019.9
2016-Jun-21 02:33N 43°12' E 010°08'2323.0
2016-Jun-21 01:33N 42°50' E 009°59'2323.2
2016-Jun-21 00:33N 42°27' E 009°54'14 0.9
2016-Jun-20 08:30N 42°40' E 009°48'2526.3
2016-Jun-20 07:34N 43°03' E 010°01'2726.5
2016-Jun-20 06:34N 43°28' E 010°12'6 5.9
2016-Jun-20 05:28N 43°33' E 010°18'0 0.0
2016-Jun-20 04:31N 43°33' E 010°18'6 6.3
2016-Jun-20 03:34N 43°28' E 010°13'2323.4
2016-Jun-20 02:34N 43°06' E 010°05'34 2.7
2016-Jun-19 13:34N 42°33' E 010°22'27 2.0
2016-Jun-19 00:08N 42°55' E 009°59'1526.4
2016-Jun-18 23:34N 43°09' E 010°05'2424.4
2016-Jun-18 22:33N 43°32' E 010°16'2 1.9
2016-Jun-18 21:33N 43°33' E 010°18'4 4.0
2016-Jun-18 20:34N 43°30' E 010°14'2525.5
2016-Jun-18 19:34N 43°06' E 010°05'31 2.8
2016-Jun-18 08:32N 42°37' E 009°49'2626.0
2016-Jun-18 07:32N 43°02' E 010°00'2526.1
2016-Jun-18 06:34N 43°26' E 010°11'9 8.8
2016-Jun-18 05:33N 43°33' E 010°18'0 0.0
2016-Jun-18 04:27N 43°33' E 010°18'3 3.5
2016-Jun-18 03:34N 43°31' E 010°15'2222.1
2016-Jun-18 02:33N 43°09' E 010°07'  

Dump ship's entire track history